Hauptseite
METAR-TAF:

METAR-TAF

Flughäfen :

Flugplatz Les Eplatures

La Chaux-de-Fonds, Schweiz

Breite: 47-05-03N, Länge: 006-47-37E, Höhe: 1027 m

Beobachtung

Neuester Wetterbericht von vor 42 Minuten, um 04:20 UTC
Wind 5 kt aus Nordost
Temperatur 0°C
Luftfeuchtigkeit 93%
Luftdruck 1005 hPa
Sichtweite: 9000 m

METAR: LSGC 170420Z AUTO 04005KT 9000 NSC 00/M01 Q1005

Zeit: 06:02 (05:02 UTC)

Prognose

Neuester Wetterbericht von vor 14 Stunden und 37 Minuten, um 14:25 UTC
Gültige Prognose vom 16 um 15 UTC bis 16 um 24 UTC
Wind 6 kt aus Süd/Südwest
Sichtweite 10 km oder mehr
Aufgelockert bewölkt in der Höhe von 3500 ft

TAF: LSGC 161425Z 1615/1624 20006KT 9999 SCT035

Wetterbeobachtungen und Prognosen von mehr als 4000 Flughäfen (METAR und TAF Bericht).

Die verfügbaren Stationen werden durch gelbe und rote Markierungen auf der Karte dargestellt.

Führen Sie die Maus auf sie, um den Namen der Station zu sehen.

Darauf klicken, um die Beobachtung von Wetterbeobachtungen und Prognosen zu sehen.

Um die Karte zu ändern : klicken Sie auf den grünen Tasten mit einem schwarzen Kreuz Zum Vergrößern, auf den grünen Button mit einem Gedankenstrich zu verkleinern, oder auf die grünen Pfeile für benachbarte Karten.


METAR-TAF: